x

Mid Gulf - 180 Nm South Of Southwest Pass, La (42001) Wave Buoy

6:50am - Sun 29th May 2016 All times are UTC.

  • Sig Wave height 2.3ft
  • Swell Direction
  • Peak Period 5s
  • Average Period 4s
  • Wind
    9mph
  • Sea Temp 81°f
  • Air Temp 80°f
  • Sea Pressure 1016.4mb

More Historic Weather Station data

Upgrade to MSW Pro to gain access to the past 30 days of data for over 8000 Wavebouys and Weather Stations around the globe.

Join Pro

Comparision Forecast

View Surf forecast
   
Sun 05/29 6:50am 2.5ft 5s 4s 9
mph
1016.4mb 81f 80f
5:50am 2.5ft 6s 5s 9
mph
1016.6mb 81f 80f
4:50am 2.5ft 6s 5s 9 11 mph 1016.8mb 81f 81f
3:50am 2.5ft 6s 5s 11 13 mph 1017.1mb 81f 81f
2:50am 2.5ft 5s 5s 11 13 mph 1016.9mb 81f 81f
1:50am 2.5ft 6s 5s 9
mph
1016.7mb 81f 81f
12:50am 2.5ft 6s 4s 7 9 mph 1015.9mb 81f 81f
Sat 05/28 11:50pm 2.5ft 6s 4s 9
mph
1015.4mb 82f 82f
10:50pm 2.5ft 6s 4s 9 11 mph 1015.1mb 82f 82f
9:50pm 2.5ft 7s 4s 9 11 mph 1014.9mb 82f 82f
8:50pm 2.5ft 6s 4s 11 13 mph 1014.9mb 82f 81f
7:50pm 2.5ft 6s 4s 13 16 mph 1014.9mb 82f 81f
6:50pm 3ft 5s 4s 16 18 mph 1014.7mb 82f 81f
5:50pm 3ft 5s 4s 11 16 mph 1015.1mb 81f 81f
4:50pm 3ft 5s 4s 13 16 mph 1015.1mb 81f 81f
3:50pm 3ft 5s 4s 16 18 mph 1014.9mb 81f 81f
2:50pm 3ft 5s 4s 16 18 mph 1014.5mb 81f 81f
1:50pm 3ft 5s 4s 13 18 mph 1014.9mb 81f 81f
12:50pm 3ft 5s 4s 11 13 mph 1015.1mb 81f 81f
11:50am 3ft 5s 4s 11 13 mph 1014.7mb 81f 80f
10:50am 3ft 6s 4s 9 11 mph 1014.3mb 81f 80f
9:50am 3ft 6s 4s 11 13 mph 1014.1mb 81f 80f
8:50am 3.5ft 6s 4s 11 13 mph 1013.7mb 81f 80f
7:50am 3ft 6s 4s 13 16 mph 1013mb 81f 80f
6:50am 3.5ft 5s 4s 13 16 mph 1012.8mb 81f 80f
5:50am 3.5ft 6s 4s 13 16 mph 1012.6mb 81f 80f
4:50am 3.5ft 6s 5s 16 18 mph 1013.1mb 81f 81f
3:50am 3.5ft 5s 5s 13 16 mph 1013.5mb 81f 81f
2:50am 3.5ft 6s 5s 13 16 mph 1013.2mb 81f 80f
1:50am 3.5ft 6s 5s 13 18 mph 1011.9mb 81f 80f
12:50am 3.5ft 6s 5s 16 18 mph 1011.4mb 81f 80f
Fri 05/27 11:50pm 3.5ft 5s 5s 13 16 mph 1011.4mb 81f 80f
10:50pm 4ft 6s 5s 11 16 mph 1011.8mb 81f 81f
9:50pm 3.5ft 6s 5s 13 18 mph 1011.8mb 81f 80f
8:50pm 4.5ft 5s 5s 16 18 mph 1012.3mb 81f 80f
7:50pm 4.5ft 6s 5s 16 20 mph 1012.5mb 81f 80f
6:50pm 4.5ft 5s 5s 18 22 mph 1012.5mb 81f 80f
5:50pm 4.5ft 6s 5s 20 22 mph 1012.9mb 81f 80f
4:50pm 4.5ft 6s 5s 22 25 mph 1012.8mb 81f 80f
3:50pm 4.5ft 6s 5s 18 20 mph 1013.8mb 81f 80f
2:50pm 4.5ft 7s 5s 18 20 mph 1013.6mb 81f 80f
1:50pm 4.5ft 6s 5s 18 20 mph 1013.9mb 81f 80f
12:50pm 4.5ft 7s 5s 16 20 mph 1013.7mb 81f 80f
11:50am 4.5ft 6s 5s 18 20 mph 1013.4mb 81f 80f
10:50am 4.5ft 6s 5s 18 22 mph 1013mb 81f 80f
9:50am 4.5ft 6s 5s 18 20 mph 1013.2mb 81f 80f
8:50am 4.5ft 6s 5s 18 20 mph 1013.2mb 81f 81f
7:50am 4.5ft 6s 5s 16 20 mph 1013.8mb 81f 81f
6:50am 4.5ft 6s 4s 18 20 mph 1014.3mb 81f 81f
5:50am 4.5ft 6s 5s 20 25 mph 1014.3mb 81f 82f
4:50am 4ft 5s 4s 20 22 mph 1014.9mb 81f 81f
3:50am 3.5ft 5s 4s 20 25 mph 1014.5mb 81f 81f
2:50am 3.5ft 5s 4s 18 20 mph 1014.7mb 81f 81f
1:50am 3.5ft 5s 4s 16 18 mph 1014.6mb 81f 81f
12:50am 3.5ft 5s 4s 16 18 mph 1014.7mb 81f 81f
Thu 05/26 11:50pm 3.5ft 5s 4s 16 18 mph 1014.4mb 82f 82f
10:50pm 3.5ft 5s 4s 16 20 mph 1014.8mb 82f 82f
9:50pm 3ft 5s 4s 18 20 mph 1015.3mb 82f 82f
8:50pm 3.5ft 5s 4s 16 20 mph 1016.3mb 82f 82f
7:50pm 3.5ft 5s 4s 16 18 mph 1016.7mb 82f 82f
6:50pm 3.5ft 6s 4s 16 20 mph 1016.9mb 82f 82f
5:50pm 3.5ft 5s 4s 16 18 mph 1017.6mb 82f 82f
4:50pm 3.5ft 5s 4s 16 18 mph 1017.8mb 81f 82f
3:50pm 3.5ft 5s 4s 16 18 mph 1017.8mb 81f 82f
2:50pm 3.5ft 5s 4s 16 18 mph 1018mb 81f 82f
1:50pm 3.5ft 5s 4s 16 18 mph 1017.9mb 81f 82f
12:50pm 3.5ft 5s 4s 16
mph
1017.6mb 81f 81f
11:50am 3.5ft 5s 4s 16 18 mph 1017.1mb 81f 81f
10:50am 3.5ft 5s 4s 18 22 mph 1016.3mb 81f 81f
9:50am 3.5ft 5s 4s 16 18 mph 1016.4mb 81f 81f
8:50am 3.5ft 5s 4s 16 20 mph 1016.3mb 81f 81f
7:50am 3.5ft 5s 4s 16 18 mph 1017mb 81f 81f
6:50am 3.5ft 5s 4s 16 18 mph 1017.8mb 81f 81f
5:50am 3.5ft 5s 4s 16 18 mph 1018.4mb 81f 81f
4:50am 3.5ft 5s 4s 16 20 mph 1018.9mb 81f 81f
3:50am 3.5ft 5s 4s 16 18 mph 1018.9mb 81f 81f
2:50am 3.5ft 5s 4s 18 20 mph 1018.4mb 81f 81f
1:50am 3.5ft 5s 4s 16 18 mph 1018.4mb 81f 81f
12:50am 3.5ft 5s 4s 16 18 mph 1018.2mb 81f 82f
Wed 05/25 11:50pm 3.5ft 5s 4s 16 20 mph 1017.9mb 82f 82f
10:50pm 3.5ft 5s 4s 16 18 mph 1017.9mb 82f 82f
9:50pm 3.5ft 5s 4s 16 18 mph 1017.9mb 82f 82f
8:50pm 3.5ft 6s 4s 16 18 mph 1018.2mb 82f 82f
7:50pm 3.5ft 5s 4s 16 18 mph 1018.5mb 82f 82f
6:50pm 3.5ft 5s 4s 16 18 mph 1018.7mb 82f 82f
5:50pm 3.5ft 5s 4s 16 18 mph 1018.8mb 81f 82f
4:50pm 3.5ft 5s 4s 13 16 mph 1019.3mb 81f 82f
3:50pm 3.5ft 5s 4s 16 18 mph 1019.4mb 81f 82f
2:50pm 3.5ft 5s 4s 16 18 mph 1019.1mb 81f 82f
1:50pm 3.5ft 5s 4s 16 18 mph 1018.8mb 81f 82f
12:50pm 3.5ft 5s 4s 18 20 mph 1018.3mb 81f 82f
11:50am 3.5ft 5s 4s 16 20 mph 1017.7mb 81f 81f
10:50am 3.5ft 5s 4s 16 20 mph 1017.2mb 81f 81f
9:50am 3.5ft 5s 4s 18 20 mph 1016.8mb 81f 81f
8:50am 3.5ft 6s 4s 16 18 mph 1016.8mb 81f 81f